Detall de PIREP

Printer-friendly versionPDF version

[2012/08/10 07:27:00]
Flight IATA:CT1005
Pilot Number:037
Company ICAO:CAT
Aircraft Type:B752/E
PAX:93
Aircraft Registration:PAX
Departing Airport: LZIB
Destination Airport: LJLJ
Alternate Airport:LDZA
Online: VATSIM
Route:TOVKA PUBEG GRZ RADLY
Flight Level:F190
No Slew and time accel
No pause
Crash detect
Detect pilot in Cockpit between each 30 and 45 minutes
07:27 Zero fuel Weight: 161048 Lbs, Fuel Weight: 16102 Lbs
07:27 VATSIM:LZIB 100700Z 36004KT 330V050 CAVOK 21/10 Q1022 NOSIG
07:27 VATSIM:LJLJ 100700Z VRB01KT 9999 FEW040 18/15 Q1022 NOSIG
07:41 Parking Brakes off
07:50 Take-off
07:50 Take off Weight: 175656 Lbs
07:50 Wind: 027º @ 006 Knots Heading: 315º
07:50 POS N48º 09´ 59´´ E017º 13´ 05´´
07:50 Gear Up: 185 Knots
07:50 Flaps:2 at 185 Knots
07:50 Flaps:1 at 206 Knots
07:50 Flaps:0 at 222 Knots
07:59 TOC
07:59 Fuel Weight: 12334 Lb
08:05 Wind:336º@018Knots Heading: 230º Ground Speed: 431 Knots Altitude 19304 ft
08:09 TOD
08:09 Fuel Weight: 11022 Lb
08:20 Wind:076º@005 Knots Heading: 207º Ground Speed: 250 Knots Altitude 7887 ft
08:21 Flaps:1 at 212 Knots
08:24 Flaps:2 at 200 Knots
08:25 Flaps:3 at 178 Knots
08:25 Gear Down: 154 Knots
08:25 Flaps:4 at 148 Knots
08:26 Flaps:5 at 147 Knots
08:28 Gear Up: 136 Knots
08:28 Flaps:4 at 135 Knots
08:28 Flaps:3 at 178 Knots
08:29 Flaps:2 at 172 Knots
08:35 Wind:091º@001 Knots Heading: 047º Ground Speed: 181 Knots Altitude 3858 ft
08:35 Flaps:3 at 169 Knots
08:35 Gear Down: 167 Knots
08:36 Flaps:4 at 164 Knots
08:36 Flaps:5 at 163 Knots
08:37 Flaps:6 at 154 Knots
08:37 TouchDown:Rate -137 ft/min Speed: 133 Knots
08:38 VATSIM:LJLJ 100800Z 10001KT 9999 FEW050 SCT250 20/15 Q1022 NOSIG
08:38 Land
08:38 Wind:097º@001 Knots
08:38 Heading: 307º
08:38 Flight Duration: 00:48
08:38 Landing Weight: 169330 Lbs
08:38 POS N46º 13´ 22´´ E014º 27´ 33´´
08:42 Parking brakes on
08:42 Block to Block Duration: 01:01
08:42 Final Fuel: 7839 Lbls
08:42 Spent Fuel: 8262 Lbls
08:42 Flight Length: 131 NM
08:42 TOD Land Length: 74 NM

Exportar CSV

Powered by Drupal - Modified by Danger4k